< < Back
Terminal Aerodrome Forecast


Current Version              Previous Versions:   1  2  3  4  5  6  7  8  9  

Terminal Aerodrome Forecast

947
FTUS42 KFFC 220500
TAFAHN
TAF
KAHN 220523Z 2206/2306 25004KT P6SM VCSH SCT060 BKN080
     FM221000 33004KT 5SM BR SCT050
     FM221300 35005KT P6SM SCT040
     FM221600 03006KT P6SM FEW035 SCT150
     FM221800 04008KT P6SM SCT060
     FM222300 02004KT P6SM SKC=

Latest METAR

982
SAUS70 KWBC 220800
MTRAHN
METAR KAHN 220751Z AUTO 00000KT 10SM BKN110 22/19 A2996 RMK AO2 SLP136
T02170189


USA.gov is the U.S. government's official web portal to all federal, state and local government web resources and services.